Bayard, NE (69334)

4:33 AM MST on February 14, 2016 (GMT -0700)
East Bayard | | Change Station
CLOSE
Current Station
Personal Weather Station
Location: Bayard, NE
Elevation: 3789 ft
Nearby Weather Stations

Elev 3789 ft 41.76 °N, 103.32 °W | Updated 12 minutes ago

Clear
Clear
24.8 °F
Feels Like 25 °F
N
0.0
Wind Variable Wind from NW

Today
High -- | Low -- °F
--% Chance of Precip.
Yesterday
High -- | Low -- °F
Precip. -- in
Pressure 29.96 in
Visibility 10.0 miles
Clouds Clear
Windchill 25 °F
Dew Point 23 °F
Humidity 92%
Rainfall 0.00 in
Snow Depth Not available.
6:50 AM 5:24 PM
Waxing Crescent, 41% visible
METAR KBFF 141053Z AUTO 00000KT 10SM CLR M03/M06 A2995 RMK AO2 SLP146 T10331061
Pressure 29.96 in
Visibility 10.0 miles
Clouds Clear
Windchill 25 °F
Dew Point 23 °F
Humidity 92%
Rainfall 0.00 in
Snow Depth Not available.
6:50 AM 5:24 PM
Waxing Crescent, 41% visible
METAR KBFF 141053Z AUTO 00000KT 10SM CLR M03/M06 A2995 RMK AO2 SLP146 T10331061

10-Day Weather Forecast

Almanac

Astronomy

Feb. 14, 2016 Rise Set
Actual Time
Civil Twilight
Nautical Twilight
Astronomical Twilight
Moon
Length of Visible Light
Length of Day
Tomorrow will be .
, % of the Moon is Illuminated

Today's Extremes

State Highs State Lows

Community

WunderPhotos

Upload Photos

1,892,766 photos uploaded!

WunderBlog® & News

Nearby

Air Quality

  Air Quality AQ Index Pollutant
Not available.

Snow Depth

Station Depth Elevation

Earthquake Activity

City Distance Mag. Time & Date
Minimum magnitude displayed is 2.5.

Coastal Water Temperatures

Place Temperature

Stations

Nearby Weather Stations

Station Location Temp. Windchill Dew Point Humidity Wind Precip. Elev Updated Type
                   

Watches & Warnings

There are currently no watches in effect.